Time;durP1;ratioP1;P1;durP2;ratioP2;P2;SDS_P1;SDS_P2;PMS_P1;PMS_P2;Temp;Humidity;BMP_temperature;BMP_pressure;BME280_temperature;BME280_humidity;BME280_pressure;Samples;Min_cycle;Max_cycle;Signal;HPM_P1;HPM_P2
2020/12/09 00:00:51;;;;;;;11.82;5.32;;;-0.40;56.30;;;;;;5053021;28;20484;-74
2020/12/09 00:03:17;;;;;;;14.65;6.30;;;-0.50;56.10;;;;;;5053555;28;20104;-74
2020/12/09 00:05:44;;;;;;;11.60;5.80;;;-0.50;56.10;;;;;;5053056;28;20603;-75
2020/12/09 00:08:10;;;;;;;12.60;6.50;;;-0.50;56.00;;;;;;5056925;28;20106;-74
2020/12/09 00:10:36;;;;;;;11.73;6.90;;;-0.50;55.90;;;;;;5058160;28;20099;-73
2020/12/09 00:13:02;;;;;;;13.07;6.22;;;-0.50;55.90;;;;;;5057409;28;20017;-74
2020/12/09 00:15:28;;;;;;;12.70;6.00;;;-0.50;55.90;;;;;;5056518;28;20017;-74
2020/12/09 00:17:54;;;;;;;12.30;6.88;;;-0.50;55.90;;;;;;5057439;28;20083;-74
2020/12/09 00:20:20;;;;;;;16.50;6.55;;;-0.50;55.90;;;;;;5056934;28;20028;-75
2020/12/09 00:22:45;;;;;;;15.82;6.78;;;-0.50;55.80;;;;;;5057075;28;20024;-74
2020/12/09 00:25:11;;;;;;;14.82;6.50;;;-0.50;55.80;;;;;;5056851;28;20032;-74
2020/12/09 00:27:37;;;;;;;15.00;6.30;;;-0.50;55.80;;;;;;5056827;28;20025;-72
2020/12/09 00:30:07;;;;;;;13.13;6.53;;;-0.50;55.70;;;;;;5057490;28;20033;-74
2020/12/09 00:32:36;;;;;;;16.70;8.10;;;-0.40;55.70;;;;;;5057175;28;20036;-73
2020/12/09 00:35:06;;;;;;;15.98;6.90;;;-0.50;55.60;;;;;;5056878;28;20036;-73
2020/12/09 00:37:34;;;;;;;14.02;6.43;;;-0.40;55.60;;;;;;5056471;28;20075;-73
2020/12/09 00:39:59;;;;;;;17.83;7.70;;;-0.40;55.70;;;;;;5057015;28;20449;-74
2020/12/09 00:42:25;;;;;;;13.50;6.72;;;-0.40;55.60;;;;;;5056985;28;20020;-74
2020/12/09 00:44:51;;;;;;;15.93;7.18;;;-0.40;55.60;;;;;;5056693;28;20021;-75
2020/12/09 00:47:16;;;;;;;13.68;5.75;;;-0.40;55.50;;;;;;5056905;28;20021;-74
2020/12/09 00:52:31;;;;;;;15.15;6.35;;;-0.30;55.50;;;;;;5055585;28;20167;-75
2020/12/09 00:54:57;;;;;;;15.25;6.47;;;-0.30;55.40;;;;;;5056880;28;20108;-74
2020/12/09 00:57:23;;;;;;;14.30;7.13;;;-0.30;55.40;;;;;;5057098;28;20033;-74
2020/12/09 00:59:49;;;;;;;13.77;6.00;;;-0.20;55.40;;;;;;5056294;28;20632;-74
2020/12/09 01:02:15;;;;;;;19.73;8.02;;;-0.20;55.20;;;;;;5056731;28;20060;-76
2020/12/09 01:04:41;;;;;;;15.90;7.18;;;-0.20;55.00;;;;;;5056505;28;20025;-74
2020/12/09 01:07:07;;;;;;;17.77;7.57;;;-0.20;55.10;;;;;;5056141;28;20025;-73
2020/12/09 01:09:32;;;;;;;11.55;6.60;;;-0.20;55.10;;;;;;5056240;28;20080;-73
2020/12/09 01:12:02;;;;;;;18.63;7.75;;;-0.20;55.60;;;;;;5056060;28;20021;-73
2020/12/09 01:14:29;;;;;;;16.50;6.97;;;-0.10;55.00;;;;;;5056260;28;20168;-73
2020/12/09 01:16:55;;;;;;;15.18;6.18;;;-0.10;55.00;;;;;;5056209;28;20116;-73
2020/12/09 01:19:22;;;;;;;14.48;6.95;;;-0.10;55.00;;;;;;5055886;28;20056;-73
2020/12/09 01:21:48;;;;;;;15.32;6.70;;;-0.10;54.90;;;;;;5056409;28;20020;-74
2020/12/09 01:24:13;;;;;;;13.93;6.97;;;-0.10;54.90;;;;;;5056144;28;20023;-74
2020/12/09 01:26:39;;;;;;;15.10;7.30;;;-0.10;55.00;;;;;;5055798;28;20028;-74
2020/12/09 01:29:05;;;;;;;19.10;7.45;;;-0.10;55.10;;;;;;5055963;28;20422;-74
2020/12/09 01:31:30;;;;;;;15.43;7.50;;;0.00;55.10;;;;;;5056246;28;20025;-73
2020/12/09 01:33:56;;;;;;;14.68;6.63;;;0.00;55.10;;;;;;5056140;28;20013;-73
2020/12/09 01:36:23;;;;;;;15.00;6.32;;;0.10;55.10;;;;;;5056053;28;20029;-74
2020/12/09 01:38:50;;;;;;;12.63;6.30;;;0.10;55.10;;;;;;5056354;28;20340;-74
2020/12/09 01:41:18;;;;;;;16.42;6.97;;;0.10;54.90;;;;;;5055840;28;20044;-74
2020/12/09 01:43:45;;;;;;;14.93;7.15;;;0.10;54.90;;;;;;5055748;28;20029;-74
2020/12/09 01:46:16;;;;;;;15.02;7.15;;;0.20;55.00;;;;;;5056300;28;20020;-74
2020/12/09 01:48:43;;;;;;;13.15;6.47;;;0.20;54.90;;;;;;5055936;28;20024;-73
2020/12/09 01:51:09;;;;;;;15.63;7.15;;;0.20;54.90;;;;;;5055605;28;20048;-74
2020/12/09 01:53:35;;;;;;;14.15;6.90;;;0.20;54.80;;;;;;5055552;28;20020;-74
2020/12/09 01:56:01;;;;;;;15.02;6.43;;;0.20;54.70;;;;;;5054230;28;20040;-73
2020/12/09 01:58:28;;;;;;;14.88;6.35;;;0.10;54.70;;;;;;5055781;28;20449;-74
2020/12/09 02:00:54;;;;;;;12.32;6.45;;;0.20;54.80;;;;;;5055769;28;20051;-73
2020/12/09 02:03:20;;;;;;;12.18;6.22;;;0.20;54.80;;;;;;5055410;28;20031;-76
2020/12/09 02:05:46;;;;;;;10.95;6.28;;;0.20;54.90;;;;;;5054252;28;20017;-73
2020/12/09 02:08:12;;;;;;;21.05;7.10;;;0.20;55.00;;;;;;5055223;28;20021;-72
2020/12/09 02:10:37;;;;;;;19.25;7.90;;;0.20;54.90;;;;;;5053907;28;20453;-73
2020/12/09 02:13:03;;;;;;;17.30;7.07;;;0.20;55.00;;;;;;5055098;28;20063;-73
2020/12/09 02:15:29;;;;;;;15.93;6.97;;;0.30;55.00;;;;;;5055329;28;20017;-72
2020/12/09 02:17:54;;;;;;;15.90;6.65;;;0.30;54.90;;;;;;5053696;28;20037;-73
2020/12/09 02:20:20;;;;;;;15.65;6.13;;;0.30;54.90;;;;;;5054728;28;20024;-73
2020/12/09 02:22:53;;;;;;;15.75;6.68;;;0.30;55.10;;;;;;5054483;28;20050;-73
2020/12/09 02:25:19;;;;;;;13.52;7.78;;;0.30;55.10;;;;;;5054842;28;20020;-73
2020/12/09 02:27:44;;;;;;;21.58;7.10;;;0.30;55.10;;;;;;5054893;28;20104;-73
2020/12/09 02:30:10;;;;;;;17.45;7.38;;;0.30;55.20;;;;;;5053965;28;20025;-72
2020/12/09 02:32:36;;;;;;;10.85;6.43;;;0.40;55.30;;;;;;5054675;28;20021;-73
2020/12/09 02:35:04;;;;;;;15.20;6.47;;;0.40;55.40;;;;;;5054881;28;20032;-73
2020/12/09 02:37:31;;;;;;;17.50;7.32;;;0.40;55.50;;;;;;5054279;28;20033;-73
2020/12/09 02:39:57;;;;;;;17.92;7.47;;;0.40;55.50;;;;;;5054346;28;20100;-74
2020/12/09 02:42:22;;;;;;;14.40;7.07;;;0.40;55.70;;;;;;5054603;28;20107;-74
2020/12/09 02:44:48;;;;;;;12.63;6.60;;;0.40;55.60;;;;;;5054818;28;20427;-73
2020/12/09 02:47:14;;;;;;;16.15;7.10;;;0.40;55.70;;;;;;5054219;28;20025;-73
2020/12/09 02:49:39;;;;;;;18.55;7.15;;;0.40;55.90;;;;;;5054461;28;20017;-73
2020/12/09 02:52:05;;;;;;;12.95;6.50;;;0.50;55.90;;;;;;5054102;28;20059;-73
2020/12/09 02:54:30;;;;;;;20.45;7.72;;;0.50;55.90;;;;;;5054262;28;20021;-74
2020/12/09 02:56:56;;;;;;;13.88;7.68;;;0.50;55.80;;;;;;5053919;28;20373;-73
2020/12/09 02:59:22;;;;;;;12.60;6.85;;;0.50;55.80;;;;;;5054187;28;20373;-76
2020/12/09 03:01:47;;;;;;;19.63;8.23;;;0.50;56.00;;;;;;5053943;28;20385;-74
2020/12/09 03:04:13;;;;;;;16.08;7.65;;;0.50;56.60;;;;;;5054127;28;20032;-73
2020/12/09 03:06:40;;;;;;;18.02;6.93;;;0.60;56.10;;;;;;5052832;28;20032;-73
2020/12/09 03:09:07;;;;;;;18.77;8.05;;;0.50;56.00;;;;;;5053928;28;20436;-74
2020/12/09 03:11:33;;;;;;;19.38;7.20;;;0.60;56.10;;;;;;5054341;28;20051;-73
2020/12/09 03:13:59;;;;;;;16.08;7.10;;;0.60;56.00;;;;;;5054272;28;20025;-72
2020/12/09 03:16:25;;;;;;;16.77;7.40;;;0.50;56.00;;;;;;5054328;28;20419;-73
2020/12/09 03:18:51;;;;;;;15.52;7.45;;;0.50;56.20;;;;;;5053927;28;20025;-74
2020/12/09 03:21:17;;;;;;;15.38;7.28;;;0.50;56.30;;;;;;5053620;28;20040;-74
2020/12/09 03:23:43;;;;;;;19.42;7.38;;;0.60;56.30;;;;;;5053986;28;20032;-74
2020/12/09 03:26:08;;;;;;;14.85;7.22;;;0.60;56.30;;;;;;5053801;28;20031;-74
2020/12/09 03:28:35;;;;;;;17.88;7.82;;;0.60;56.30;;;;;;5054016;28;20016;-73
2020/12/09 03:31:02;;;;;;;16.25;7.40;;;0.60;56.30;;;;;;5053983;28;20025;-73
2020/12/09 03:33:28;;;;;;;18.30;7.28;;;0.60;56.40;;;;;;5053701;28;20017;-75
2020/12/09 03:35:54;;;;;;;16.50;7.40;;;0.60;56.50;;;;;;5052280;28;20059;-72
2020/12/09 03:38:19;;;;;;;14.30;7.65;;;0.60;56.50;;;;;;5053868;28;20040;-73
2020/12/09 03:40:45;;;;;;;19.05;8.35;;;0.60;56.50;;;;;;5053016;28;20093;-73
2020/12/09 03:43:11;;;;;;;19.73;7.43;;;0.60;56.60;;;;;;5052967;28;20052;-73
2020/12/09 03:45:36;;;;;;;17.65;7.15;;;0.60;56.70;;;;;;5053207;28;20025;-74
2020/12/09 03:48:03;;;;;;;17.85;7.65;;;0.60;57.00;;;;;;5053974;28;20476;-73
2020/12/09 03:50:29;;;;;;;19.23;7.85;;;0.60;57.00;;;;;;5053723;28;20032;-74
2020/12/09 03:52:55;;;;;;;17.88;6.80;;;0.60;57.10;;;;;;5052070;28;20040;-73
2020/12/09 03:55:21;;;;;;;19.33;8.02;;;0.60;57.10;;;;;;5053125;28;20096;-74
2020/12/09 03:57:47;;;;;;;20.13;7.05;;;0.70;57.70;;;;;;5053192;28;20037;-73
2020/12/09 04:00:12;;;;;;;13.43;7.78;;;0.70;57.20;;;;;;5052056;28;20125;-73
2020/12/09 04:02:38;;;;;;;19.73;8.55;;;0.70;57.10;;;;;;5053001;28;20028;-74
2020/12/09 04:05:05;;;;;;;19.17;7.50;;;0.70;57.10;;;;;;5053518;28;20108;-73
2020/12/09 04:07:30;;;;;;;18.20;8.38;;;0.60;57.10;;;;;;5053495;28;20502;-74
2020/12/09 04:09:56;;;;;;;19.90;8.40;;;0.50;57.20;;;;;;5053561;28;20033;-73
2020/12/09 04:12:23;;;;;;;20.10;8.05;;;0.50;57.50;;;;;;5053513;28;20025;-73
2020/12/09 04:14:52;;;;;;;15.70;8.23;;;0.50;57.60;;;;;;5052743;28;20064;-73
2020/12/09 04:17:18;;;;;;;21.05;7.80;;;0.50;57.80;;;;;;5051793;28;20033;-73
2020/12/09 04:19:45;;;;;;;19.50;8.15;;;0.60;57.80;;;;;;5053004;28;20040;-73
2020/12/09 04:22:11;;;;;;;16.95;8.38;;;0.60;57.80;;;;;;5052691;28;20100;-74
2020/12/09 04:24:37;;;;;;;19.90;7.97;;;0.60;58.00;;;;;;5051968;28;20057;-74
2020/12/09 04:27:03;;;;;;;18.50;7.65;;;0.70;57.90;;;;;;5052808;28;20111;-73
2020/12/09 04:29:29;;;;;;;21.60;9.25;;;0.70;57.90;;;;;;5053586;28;20311;-74
2020/12/09 04:31:54;;;;;;;17.35;8.25;;;0.70;57.90;;;;;;5052725;28;20032;-73
2020/12/09 04:34:21;;;;;;;17.23;7.93;;;0.70;57.90;;;;;;5051744;28;20025;-73
2020/12/09 04:36:48;;;;;;;19.42;8.77;;;0.70;57.80;;;;;;5052967;28;20033;-72
2020/12/09 04:39:14;;;;;;;18.55;8.13;;;0.70;57.90;;;;;;5051837;28;20021;-73
2020/12/09 04:41:40;;;;;;;17.70;8.30;;;0.70;57.80;;;;;;5052918;28;20017;-73
2020/12/09 04:44:05;;;;;;;21.08;7.68;;;0.70;57.80;;;;;;5052007;28;20109;-75
2020/12/09 04:46:36;;;;;;;15.73;7.57;;;0.60;57.80;;;;;;5051711;28;20449;-75
2020/12/09 04:49:17;;;;;;;21.00;8.38;;;0.60;57.90;;;;;;5052906;28;20028;-74
2020/12/09 04:51:49;;;;;;;18.50;8.32;;;0.60;58.10;;;;;;5052850;28;20021;-73
2020/12/09 04:54:16;;;;;;;19.90;8.32;;;0.60;58.00;;;;;;5056144;28;20099;-73
2020/12/09 04:56:55;;;;;;;18.80;7.93;;;0.70;58.10;;;;;;5055432;28;20041;-74
2020/12/09 04:59:25;;;;;;;19.52;7.50;;;0.60;58.20;;;;;;5056471;28;20031;-74
2020/12/09 05:02:01;;;;;;;18.13;7.75;;;0.70;58.20;;;;;;5055056;28;20020;-74
2020/12/09 05:04:29;;;;;;;16.60;6.93;;;0.70;58.10;;;;;;5056348;28;20025;-73
2020/12/09 05:06:55;;;;;;;18.17;7.85;;;0.70;58.20;;;;;;5055746;28;20406;-73
2020/12/09 05:09:26;;;;;;;17.55;8.07;;;0.60;58.00;;;;;;5056669;28;20120;-74
2020/12/09 05:11:58;;;;;;;20.02;7.97;;;0.50;58.30;;;;;;5056226;28;20025;-74
2020/12/09 05:14:25;;;;;;;18.88;8.75;;;0.40;58.50;;;;;;5056468;28;20047;-74
2020/12/09 05:16:59;;;;;;;18.58;8.73;;;0.50;58.70;;;;;;5055652;28;20457;-73
2020/12/09 05:19:26;;;;;;;21.60;9.10;;;0.50;59.00;;;;;;5056110;28;20099;-74
2020/12/09 05:21:52;;;;;;;18.27;8.35;;;0.50;58.80;;;;;;5056551;28;20024;-76
2020/12/09 05:24:19;;;;;;;18.55;8.73;;;0.60;58.90;;;;;;5057166;28;20021;-75
2020/12/09 05:26:46;;;;;;;20.42;9.05;;;0.60;58.90;;;;;;5056143;28;20059;-76
2020/12/09 05:29:13;;;;;;;19.67;8.85;;;0.60;59.10;;;;;;5055428;28;20025;-73
2020/12/09 05:31:42;;;;;;;21.45;8.55;;;0.60;59.10;;;;;;5055898;28;20021;-73
2020/12/09 05:34:31;;;;;;;18.73;9.00;;;0.70;59.10;;;;;;5056625;28;20016;-74
2020/12/09 05:37:01;;;;;;;18.77;8.32;;;0.60;59.20;;;;;;5056162;28;20070;-74
2020/12/09 05:39:27;;;;;;;19.52;9.02;;;0.70;59.30;;;;;;5055934;28;20025;-74
2020/12/09 05:41:54;;;;;;;19.05;9.07;;;0.70;59.30;;;;;;5055626;28;20025;-75
2020/12/09 05:44:26;;;;;;;20.90;9.48;;;0.70;59.40;;;;;;5058610;28;20461;-74
2020/12/09 05:47:04;;;;;;;27.10;11.52;;;0.80;59.60;;;;;;5059755;28;20024;-74
2020/12/09 05:49:37;;;;;;;21.00;8.75;;;0.80;59.70;;;;;;5058861;28;20021;-75
2020/12/09 05:52:16;;;;;;;21.75;9.07;;;0.90;59.70;;;;;;5059915;28;20036;-74
2020/12/09 05:54:53;;;;;;;21.05;9.52;;;0.90;59.60;;;;;;5059832;28;20017;-74
2020/12/09 05:57:25;;;;;;;21.17;9.55;;;0.90;59.40;;;;;;5057138;28;20056;-74
2020/12/09 05:59:51;;;;;;;17.65;8.88;;;0.90;59.60;;;;;;5059437;28;20401;-77
2020/12/09 06:02:22;;;;;;;23.65;9.45;;;1.00;59.70;;;;;;5055633;28;20104;-75
2020/12/09 06:05:00;;;;;;;18.00;9.55;;;0.90;59.70;;;;;;5053618;28;20029;-77
2020/12/09 06:07:28;;;;;;;22.05;9.63;;;0.90;59.90;;;;;;5056190;28;20025;-74
2020/12/09 06:10:16;;;;;;;25.85;10.23;;;0.90;60.00;;;;;;5053727;28;20056;-74
2020/12/09 06:13:01;;;;;;;26.65;10.20;;;1.00;60.30;;;;;;5055200;28;20024;-74
2020/12/09 06:15:31;;;;;;;24.95;10.75;;;1.10;60.50;;;;;;5055465;28;20090;-74
2020/12/09 06:18:10;;;;;;;22.90;10.55;;;1.20;60.30;;;;;;5054817;28;20090;-74
2020/12/09 06:20:38;;;;;;;19.05;9.63;;;1.20;60.30;;;;;;5054811;28;20029;-74
2020/12/09 06:23:15;;;;;;;18.10;9.32;;;1.30;60.30;;;;;;5053518;28;20052;-73
2020/12/09 06:25:42;;;;;;;23.58;12.35;;;1.20;59.90;;;;;;5055409;28;20108;-74
2020/12/09 06:28:16;;;;;;;21.30;10.68;;;1.00;59.90;;;;;;5054539;28;20350;-74
2020/12/09 06:30:42;;;;;;;22.35;10.23;;;0.90;60.30;;;;;;5054439;28;20021;-75
2020/12/09 06:33:08;;;;;;;20.38;9.35;;;0.80;60.40;;;;;;5053311;28;20020;-75
2020/12/09 06:35:34;;;;;;;22.83;10.35;;;0.70;60.80;;;;;;5054495;28;20539;-74
2020/12/09 06:38:09;;;;;;;24.88;9.93;;;0.70;61.10;;;;;;5054390;28;20041;-78
2020/12/09 06:40:39;;;;;;;20.23;9.98;;;0.60;61.30;;;;;;5054476;28;20025;-75
2020/12/09 06:43:11;;;;;;;27.67;11.95;;;0.60;61.30;;;;;;5054265;28;20021;-76
2020/12/09 06:45:44;;;;;;;28.33;11.13;;;0.60;61.60;;;;;;5053527;28;20046;-73
2020/12/09 06:48:14;;;;;;;31.75;12.38;;;0.60;61.80;;;;;;5054173;28;20025;-75
2020/12/09 06:50:44;;;;;;;29.25;11.13;;;0.60;62.00;;;;;;5054436;28;20039;-75
2020/12/09 06:53:13;;;;;;;28.98;11.70;;;0.70;62.10;;;;;;5054107;28;20151;-74
2020/12/09 06:55:39;;;;;;;27.85;12.00;;;0.70;62.40;;;;;;5054380;28;20028;-74
2020/12/09 06:58:24;;;;;;;27.30;11.95;;;0.80;62.60;;;;;;5053823;28;20033;-72
2020/12/09 07:01:01;;;;;;;27.17;11.48;;;0.90;62.70;;;;;;5053398;28;20448;-74
2020/12/09 07:03:28;;;;;;;23.55;11.07;;;1.00;62.40;;;;;;5054074;28;20115;-75
2020/12/09 07:05:55;;;;;;;26.25;11.60;;;1.00;62.10;;;;;;5054302;28;20025;-73
2020/12/09 07:08:21;;;;;;;27.13;13.02;;;1.00;62.50;;;;;;5053748;28;20372;-74
2020/12/09 07:10:47;;;;;;;28.98;11.38;;;1.00;62.60;;;;;;5054547;28;20044;-74
2020/12/09 07:13:14;;;;;;;29.30;12.20;;;1.10;62.80;;;;;;5052977;28;20036;-75
2020/12/09 07:15:45;;;;;;;29.58;13.15;;;1.20;62.90;;;;;;5052448;28;20021;-74
2020/12/09 07:18:11;;;;;;;28.23;10.90;;;1.30;63.00;;;;;;5053791;28;20056;-75
2020/12/09 07:20:37;;;;;;;24.33;11.15;;;1.40;62.40;;;;;;5053741;28;20056;-75
2020/12/09 07:23:04;;;;;;;24.83;11.45;;;1.30;62.20;;;;;;5053771;28;20024;-74
2020/12/09 07:25:31;;;;;;;21.98;10.45;;;1.30;62.50;;;;;;5052530;28;20365;-75
2020/12/09 07:27:57;;;;;;;24.98;10.68;;;1.30;62.90;;;;;;5053646;28;20365;-74
2020/12/09 07:30:23;;;;;;;26.23;11.88;;;1.30;62.30;;;;;;5053599;28;20025;-75
2020/12/09 07:32:50;;;;;;;30.80;12.15;;;1.20;63.10;;;;;;5053411;28;20029;-75
2020/12/09 07:35:17;;;;;;;25.60;11.50;;;1.30;62.80;;;;;;5053733;28;20028;-75
2020/12/09 07:37:47;;;;;;;25.80;12.00;;;1.30;62.90;;;;;;5053170;28;20037;-74
2020/12/09 07:40:30;;;;;;;23.17;11.10;;;1.40;63.10;;;;;;5053067;28;20368;-74
2020/12/09 07:43:03;;;;;;;29.08;12.20;;;1.40;63.00;;;;;;5053824;28;20031;-75
2020/12/09 07:45:29;;;;;;;33.15;13.10;;;1.50;63.10;;;;;;5053953;28;20403;-75
2020/12/09 07:48:08;;;;;;;30.23;11.35;;;1.60;63.00;;;;;;5053126;28;20028;-74
2020/12/09 07:50:35;;;;;;;26.13;11.40;;;1.70;62.90;;;;;;5053630;28;20024;-74
2020/12/09 07:53:03;;;;;;;29.40;12.27;;;1.70;62.80;;;;;;5052336;28;20400;-74
2020/12/09 07:55:29;;;;;;;25.10;11.07;;;1.80;62.70;;;;;;5053354;28;20100;-73
2020/12/09 07:58:12;;;;;;;43.50;12.90;;;1.80;62.60;;;;;;5053435;28;20116;-74
2020/12/09 08:00:42;;;;;;;32.67;14.57;;;1.90;62.70;;;;;;5053203;28;20028;-74
2020/12/09 08:03:20;;;;;;;29.40;10.82;;;2.00;62.70;;;;;;5051870;28;20023;-73
2020/12/09 08:05:46;;;;;;;25.75;11.05;;;2.10;62.60;;;;;;5052708;28;20385;-75
2020/12/09 08:08:13;;;;;;;23.58;11.57;;;2.20;62.50;;;;;;5053127;28;20029;-73
2020/12/09 08:10:43;;;;;;;23.85;10.88;;;2.20;62.30;;;;;;5054321;28;20077;-74
2020/12/09 08:13:35;;;;;;;26.60;11.07;;;2.20;62.30;;;;;;5053256;28;20108;-75
2020/12/09 08:16:06;;;;;;;23.55;11.05;;;2.30;62.20;;;;;;5051339;28;20029;-75
2020/12/09 08:18:32;;;;;;;22.33;10.10;;;2.30;61.90;;;;;;5053125;28;20037;-74
2020/12/09 08:21:00;;;;;;;23.42;10.15;;;2.40;61.80;;;;;;5053438;28;20025;-75
2020/12/09 08:23:46;;;;;;;21.13;9.93;;;2.40;61.70;;;;;;5053430;28;20017;-75
2020/12/09 08:26:12;;;;;;;25.60;10.38;;;2.40;61.50;;;;;;5053096;28;20024;-74
2020/12/09 08:28:44;;;;;;;29.25;11.38;;;2.40;61.50;;;;;;5054529;28;20051;-75
2020/12/09 08:31:15;;;;;;;27.13;12.10;;;2.50;61.50;;;;;;5057052;28;20108;-73
2020/12/09 08:33:40;;;;;;;25.08;11.48;;;2.50;61.60;;;;;;5057616;28;20036;-74
2020/12/09 08:36:11;;;;;;;22.00;10.55;;;2.50;61.60;;;;;;5057015;28;20099;-75
2020/12/09 08:38:44;;;;;;;22.92;10.85;;;2.60;61.50;;;;;;5056550;28;20029;-74
2020/12/09 08:41:36;;;;;;;24.05;10.95;;;2.60;61.20;;;;;;5056825;28;20017;-76
2020/12/09 08:44:07;;;;;;;23.42;10.63;;;2.60;61.10;;;;;;5055290;28;20118;-75
2020/12/09 08:46:34;;;;;;;28.23;11.23;;;2.60;61.10;;;;;;5055871;28;20025;-74
2020/12/09 08:49:00;;;;;;;27.98;11.50;;;2.60;61.20;;;;;;5056973;28;20124;-77
2020/12/09 08:51:30;;;;;;;21.77;9.98;;;2.60;61.20;;;;;;5056528;28;20069;-75
2020/12/09 08:53:58;;;;;;;25.90;11.18;;;2.60;61.00;;;;;;5056562;28;20131;-74
2020/12/09 08:56:31;;;;;;;22.85;11.90;;;2.50;60.60;;;;;;5056279;28;20369;-74
2020/12/09 08:58:58;;;;;;;21.08;10.45;;;2.40;60.80;;;;;;5056617;28;20064;-74
2020/12/09 09:01:25;;;;;;;22.98;10.57;;;2.30;61.00;;;;;;5056081;28;20461;-74
2020/12/09 09:03:57;;;;;;;28.45;12.10;;;2.30;60.70;;;;;;5055057;28;20052;-74
2020/12/09 09:06:22;;;;;;;27.83;11.48;;;2.20;60.90;;;;;;5056457;28;20047;-73
2020/12/09 09:08:49;;;;;;;32.17;11.30;;;2.10;61.20;;;;;;5056159;28;20436;-76
2020/12/09 09:11:25;;;;;;;25.08;10.65;;;2.00;61.40;;;;;;5056695;28;20049;-74
2020/12/09 09:13:53;;;;;;;31.50;11.70;;;2.10;61.60;;;;;;5056485;28;20348;-74
2020/12/09 09:16:19;;;;;;;29.08;11.88;;;2.10;61.80;;;;;;5056177;28;20017;-74
2020/12/09 09:18:45;;;;;;;26.65;11.48;;;2.20;61.70;;;;;;5055896;28;20383;-74
2020/12/09 09:21:11;;;;;;;24.40;11.57;;;2.30;61.60;;;;;;5056127;28;20108;-75
2020/12/09 09:23:36;;;;;;;26.00;10.90;;;2.30;61.50;;;;;;5054748;28;20021;-74
2020/12/09 09:26:02;;;;;;;24.48;11.75;;;2.40;61.40;;;;;;5056023;28;20082;-74
2020/12/09 09:28:28;;;;;;;26.85;11.85;;;2.40;61.30;;;;;;5055669;28;20021;-75
2020/12/09 09:30:54;;;;;;;23.48;12.25;;;2.40;61.30;;;;;;5054191;28;20112;-75
2020/12/09 09:33:19;;;;;;;26.42;12.05;;;2.50;61.40;;;;;;5055106;28;20109;-74
2020/12/09 09:35:45;;;;;;;30.20;12.77;;;2.50;61.30;;;;;;5055559;28;20025;-75
2020/12/09 09:38:11;;;;;;;25.27;11.77;;;2.60;61.20;;;;;;5055290;28;20033;-76
2020/12/09 09:40:37;;;;;;;24.63;12.43;;;2.70;61.20;;;;;;5053890;28;20051;-74
2020/12/09 09:43:02;;;;;;;24.88;11.75;;;2.80;60.90;;;;;;5054637;28;20029;-76
2020/12/09 09:45:28;;;;;;;24.65;11.32;;;2.80;60.70;;;;;;5055725;28;20032;-75
2020/12/09 09:47:54;;;;;;;28.92;12.85;;;2.80;60.50;;;;;;5055565;28;20021;-75
2020/12/09 09:50:20;;;;;;;26.08;11.10;;;2.80;60.40;;;;;;5055639;28;20032;-75
2020/12/09 09:52:46;;;;;;;28.10;12.65;;;2.80;60.40;;;;;;5055673;28;20162;-75
2020/12/09 09:55:12;;;;;;;26.40;12.57;;;2.90;60.20;;;;;;5055392;28;20113;-75
2020/12/09 09:57:37;;;;;;;24.13;11.05;;;2.80;59.80;;;;;;5056223;28;20078;-73
2020/12/09 10:00:05;;;;;;;26.65;11.40;;;2.80;59.90;;;;;;5054350;28;20112;-74
2020/12/09 10:02:32;;;;;;;27.90;11.90;;;2.80;59.90;;;;;;5055412;28;20146;-74
2020/12/09 10:04:58;;;;;;;25.52;11.60;;;2.80;60.00;;;;;;5054071;28;20154;-73
2020/12/09 10:07:25;;;;;;;27.40;13.32;;;2.80;60.00;;;;;;5054974;28;20029;-75
2020/12/09 10:09:51;;;;;;;27.27;11.65;;;2.80;59.90;;;;;;5055393;28;20041;-74
2020/12/09 10:12:18;;;;;;;26.73;12.25;;;2.70;59.70;;;;;;5055299;28;20017;-74
2020/12/09 10:14:44;;;;;;;25.70;12.07;;;2.70;59.60;;;;;;5055276;28;20071;-73
2020/12/09 10:17:10;;;;;;;26.77;10.85;;;2.70;59.80;;;;;;5053577;28;20033;-73
2020/12/09 10:19:36;;;;;;;22.77;11.35;;;2.70;59.90;;;;;;5055531;28;20021;-74
2020/12/09 10:22:02;;;;;;;23.73;11.57;;;2.70;59.70;;;;;;5054898;28;20021;-74
2020/12/09 10:24:28;;;;;;;24.58;11.15;;;2.70;59.70;;;;;;5054867;28;20107;-74
2020/12/09 10:26:54;;;;;;;23.98;11.48;;;2.70;59.70;;;;;;5055270;28;20087;-75
2020/12/09 10:29:20;;;;;;;23.17;11.70;;;2.70;60.00;;;;;;5054270;28;20051;-74
2020/12/09 10:31:48;;;;;;;26.55;11.20;;;2.70;59.80;;;;;;5054675;28;20053;-75
2020/12/09 10:34:17;;;;;;;26.15;11.82;;;2.80;59.80;;;;;;5055262;28;20017;-75
2020/12/09 10:36:50;;;;;;;23.52;11.55;;;2.80;59.80;;;;;;5054726;28;20025;-75
2020/12/09 10:39:18;;;;;;;21.33;10.98;;;2.80;59.70;;;;;;5053615;28;20013;-76
2020/12/09 10:41:43;;;;;;;24.77;11.48;;;2.80;59.70;;;;;;5054992;28;20342;-76
2020/12/09 10:44:10;;;;;;;28.50;11.77;;;2.80;59.60;;;;;;5054617;28;20032;-74
2020/12/09 10:46:38;;;;;;;24.27;11.88;;;2.70;59.50;;;;;;5054746;28;20512;-75
2020/12/09 10:49:10;;;;;;;24.80;11.68;;;2.70;59.70;;;;;;5054740;28;20441;-75
2020/12/09 10:51:47;;;;;;;28.40;11.85;;;2.70;59.60;;;;;;5052865;28;20100;-75
2020/12/09 10:54:13;;;;;;;24.55;11.52;;;2.70;59.60;;;;;;5053195;28;20086;-75
2020/12/09 10:56:39;;;;;;;22.85;11.75;;;2.70;59.50;;;;;;5054207;28;20048;-77
2020/12/09 10:59:05;;;;;;;27.02;12.63;;;2.70;59.60;;;;;;5054619;28;20020;-76
2020/12/09 11:01:32;;;;;;;25.48;11.52;;;2.70;59.50;;;;;;5053072;28;20104;-75
2020/12/09 11:03:58;;;;;;;24.00;11.32;;;2.70;59.60;;;;;;5053489;28;20032;-75
2020/12/09 11:06:28;;;;;;;25.73;10.55;;;2.70;59.50;;;;;;5053992;28;20024;-74
2020/12/09 11:08:54;;;;;;;30.55;12.02;;;2.60;59.10;;;;;;5054160;28;20061;-75
2020/12/09 11:11:21;;;;;;;26.75;12.00;;;2.60;59.30;;;;;;5052815;28;20025;-74
2020/12/09 11:13:47;;;;;;;28.77;12.45;;;2.60;59.40;;;;;;5054178;28;20024;-74
2020/12/09 11:16:19;;;;;;;22.75;10.35;;;2.60;59.40;;;;;;5053642;28;20456;-74
2020/12/09 11:18:45;;;;;;;24.85;12.70;;;2.60;59.20;;;;;;5054268;28;20024;-76
2020/12/09 11:21:15;;;;;;;28.67;11.90;;;2.50;59.20;;;;;;5053973;28;20037;-73
2020/12/09 11:23:41;;;;;;;22.42;11.23;;;2.50;59.40;;;;;;5053543;28;20033;-74
2020/12/09 11:26:07;;;;;;;28.58;12.30;;;2.50;59.30;;;;;;5052529;28;20017;-74
2020/12/09 11:28:33;;;;;;;23.15;11.35;;;2.60;59.20;;;;;;5054031;28;20024;-75
2020/12/09 11:30:59;;;;;;;26.52;11.50;;;2.50;59.20;;;;;;5052748;28;20131;-74
2020/12/09 11:33:24;;;;;;;21.45;10.98;;;2.50;59.00;;;;;;5053930;28;20025;-75
2020/12/09 11:35:50;;;;;;;24.98;11.15;;;2.50;59.00;;;;;;5053528;28;20025;-75
2020/12/09 11:38:16;;;;;;;26.52;12.27;;;2.50;59.20;;;;;;5053441;28;20065;-74
2020/12/09 11:40:42;;;;;;;23.55;9.68;;;2.40;59.30;;;;;;5053709;28;20017;-75
2020/12/09 11:43:08;;;;;;;26.08;11.70;;;2.50;59.30;;;;;;5052293;28;20082;-74
2020/12/09 11:45:35;;;;;;;22.05;10.93;;;2.50;59.20;;;;;;5053382;28;20100;-75
2020/12/09 11:48:01;;;;;;;25.00;11.30;;;2.50;59.10;;;;;;5052256;28;20025;-75
2020/12/09 11:50:27;;;;;;;23.58;12.32;;;2.50;58.90;;;;;;5053167;28;20021;-75
2020/12/09 11:52:53;;;;;;;29.38;11.63;;;2.40;58.90;;;;;;5053530;28;20051;-74
2020/12/09 11:55:18;;;;;;;25.52;10.45;;;2.40;58.90;;;;;;5053428;28;20416;-74
2020/12/09 11:57:44;;;;;;;21.70;10.82;;;2.40;58.90;;;;;;5053261;28;20040;-74
2020/12/09 12:00:10;;;;;;;26.23;11.55;;;2.30;58.90;;;;;;5053115;28;20020;-74
2020/12/09 12:02:35;;;;;;;25.65;11.15;;;2.30;59.00;;;;;;5052201;28;20044;-74
2020/12/09 12:05:02;;;;;;;21.77;10.82;;;2.20;59.00;;;;;;5053331;28;20025;-74
2020/12/09 12:07:28;;;;;;;23.40;11.32;;;2.20;59.00;;;;;;5053433;28;20162;-74
2020/12/09 12:09:54;;;;;;;22.88;10.85;;;2.10;59.10;;;;;;5054038;28;20051;-74
2020/12/09 12:12:19;;;;;;;22.38;11.55;;;2.10;59.20;;;;;;5053356;28;20021;-74
2020/12/09 12:14:45;;;;;;;24.48;11.40;;;2.10;59.40;;;;;;5053553;28;20031;-74
2020/12/09 12:17:11;;;;;;;29.55;11.40;;;2.10;59.60;;;;;;5053439;28;20032;-75
2020/12/09 12:19:37;;;;;;;24.77;12.07;;;2.20;59.70;;;;;;5052926;28;20082;-74
2020/12/09 12:22:06;;;;;;;22.10;10.68;;;2.20;59.70;;;;;;5052896;28;20054;-73
2020/12/09 12:24:33;;;;;;;21.73;9.85;;;2.20;59.70;;;;;;5052293;28;20031;-81
2020/12/09 12:26:58;;;;;;;25.70;12.00;;;2.20;59.50;;;;;;5053213;28;20025;-74
2020/12/09 12:29:25;;;;;;;24.35;9.23;;;2.20;59.60;;;;;;5052825;28;20013;-75
2020/12/09 12:31:51;;;;;;;21.88;10.60;;;2.10;59.50;;;;;;5053407;28;20032;-75
2020/12/09 12:34:16;;;;;;;18.75;9.73;;;2.10;59.30;;;;;;5053073;28;20104;-74
2020/12/09 12:36:42;;;;;;;24.08;10.90;;;2.00;59.40;;;;;;5053005;28;20593;-75
2020/12/09 12:39:08;;;;;;;22.95;10.18;;;2.00;59.60;;;;;;5052758;28;20040;-75
2020/12/09 12:41:34;;;;;;;22.10;11.05;;;2.00;59.90;;;;;;5052737;28;20048;-74
2020/12/09 12:44:02;;;;;;;23.35;10.90;;;2.00;60.00;;;;;;5052707;28;20024;-74
2020/12/09 12:46:28;;;;;;;19.02;11.20;;;2.00;59.80;;;;;;5051701;28;20353;-76